Terminal Aerodrome Forecast
Issued by NWS

Current Version | Previous Version | Text Only | Print | Product List | Glossary On
Versions: 1 2 3 4 5 6 7 8 9 10 11 12 13 14 15 16 17
000
FTUS45 KFGZ 240500 RRA
TAFSEZ
TAF
KSEZ 240541Z 2406/2506 VRB06KT P6SM SCT120 BKN200
     FM241800 22010KT P6SM BKN100 PROB30 2420/2424 VRB15G25KT -TSRA
      BKN080CB
     FM250200 VRB06KT P6SM SCT120 SCT200=

USA.gov is the U.S. government's official web portal to all federal, state and local government web resources and services.